Time;durP1;ratioP1;P1;durP2;ratioP2;P2;SDS_P1;SDS_P2;PMS_P1;PMS_P2;Temp;Humidity;BMP_temperature;BMP_pressure;BME280_temperature;BME280_humidity;BME280_pressure;Samples;Min_cycle;Max_cycle;Signal;HPM_P1;HPM_P2
2023/09/12 00:02:06;;;;;;;32.97;27.98;;;20.30;99.90;;;;;;5029361;28;20400;-87
2023/09/12 00:04:32;;;;;;;31.50;28.10;;;20.00;99.90;;;;;;5024936;28;20029;-84
2023/09/12 00:06:58;;;;;;;32.53;28.58;;;20.10;99.90;;;;;;5024015;28;20052;-85
2023/09/12 00:09:23;;;;;;;36.95;32.30;;;20.10;99.90;;;;;;5022968;28;20037;-86
2023/09/12 00:11:49;;;;;;;32.53;29.02;;;20.00;99.90;;;;;;5022517;28;20050;-89
2023/09/12 00:14:16;;;;;;;33.00;29.42;;;19.70;99.90;;;;;;5022545;28;20033;-89
2023/09/12 00:16:42;;;;;;;34.40;30.25;;;19.90;99.90;;;;;;5035271;28;20049;-87
2023/09/12 00:19:07;;;;;;;32.78;29.27;;;19.90;99.90;;;;;;5036494;28;20061;-83
2023/09/12 00:21:33;;;;;;;34.97;30.35;;;19.90;99.90;;;;;;5032863;28;20072;-88
2023/09/12 00:24:00;;;;;;;32.63;29.02;;;19.90;99.90;;;;;;5031845;28;20038;-85
2023/09/12 00:26:25;;;;;;;33.92;30.15;;;20.00;99.90;;;;;;5028482;28;20033;-90
2023/09/12 00:28:51;;;;;;;34.08;30.15;;;19.60;99.90;;;;;;5018258;28;20120;-84
2023/09/12 00:31:17;;;;;;;35.28;31.17;;;20.00;99.90;;;;;;5022563;28;20458;-85
2023/09/12 00:33:43;;;;;;;32.53;29.05;;;19.90;99.90;;;;;;5037533;28;20394;-85
2023/09/12 00:36:08;;;;;;;32.72;29.52;;;19.90;99.90;;;;;;5033594;28;20132;-83
2023/09/12 00:38:34;;;;;;;33.53;29.85;;;20.20;99.90;;;;;;5029950;28;20555;-85
2023/09/12 00:41:00;;;;;;;33.42;29.83;;;20.00;99.90;;;;;;5054409;22;20065;-86
2023/09/12 00:43:25;;;;;;;37.45;33.45;;;19.90;99.90;;;;;;5048147;28;20067;-83
2023/09/12 00:45:51;;;;;;;32.53;29.23;;;19.90;99.90;;;;;;5058292;28;20053;-82
2023/09/12 00:48:19;;;;;;;34.08;30.38;;;19.80;99.90;;;;;;5044764;28;20493;-83
2023/09/12 00:50:47;;;;;;;34.15;29.80;;;19.90;99.90;;;;;;5055849;28;20069;-84
2023/09/12 00:53:14;;;;;;;36.25;30.02;;;19.80;99.90;;;;;;5034296;28;20044;-85
2023/09/12 00:55:45;;;;;;;37.58;31.77;;;19.90;99.90;;;;;;5043006;28;20068;-86
2023/09/12 00:58:12;;;;;;;34.13;30.52;;;20.10;99.90;;;;;;5026734;28;20052;-84
2023/09/12 01:00:37;;;;;;;34.80;31.17;;;19.80;99.90;;;;;;5024797;28;20045;-83
2023/09/12 01:03:04;;;;;;;35.20;31.60;;;20.40;99.90;;;;;;5025021;28;20041;-84
2023/09/12 01:05:30;;;;;;;36.42;30.63;;;19.80;99.90;;;;;;5035859;28;20036;-84
2023/09/12 01:07:56;;;;;;;35.17;30.90;;;19.80;99.90;;;;;;5041165;28;20045;-84
2023/09/12 01:10:22;;;;;;;33.63;30.10;;;19.80;99.90;;;;;;5017462;28;20059;-82
2023/09/12 01:12:48;;;;;;;34.17;30.45;;;19.80;99.90;;;;;;5037182;28;20069;-85
2023/09/12 01:15:14;;;;;;;35.10;31.33;;;19.80;99.90;;;;;;5029190;28;20046;-83
2023/09/12 01:17:42;;;;;;;34.05;30.45;;;19.80;99.90;;;;;;5079151;22;20123;-83
2023/09/12 01:20:13;;;;;;;36.38;30.73;;;19.80;99.90;;;;;;5086771;28;20040;-84
2023/09/12 01:23:15;;;;;;;37.10;31.45;;;19.80;99.90;;;;;;5093590;28;20047;-83
2023/09/12 01:26:06;;;;;;;34.28;30.42;;;19.80;99.90;;;;;;5103613;28;20056;-83
2023/09/12 01:28:34;;;;;;;34.08;30.50;;;19.80;99.90;;;;;;5096352;28;20044;-84
2023/09/12 01:31:02;;;;;;;35.22;30.63;;;19.80;99.90;;;;;;5089976;28;20104;-84
2023/09/12 01:33:29;;;;;;;35.40;31.33;;;19.70;99.90;;;;;;5103941;28;20040;-83
2023/09/12 01:35:54;;;;;;;39.13;34.33;;;19.70;99.90;;;;;;5094779;28;20315;-85
2023/09/12 01:38:21;;;;;;;35.22;31.45;;;19.70;99.90;;;;;;5085589;28;20040;-83
2023/09/12 01:40:50;;;;;;;36.08;30.75;;;19.70;99.90;;;;;;5095727;28;20606;-88
2023/09/12 01:43:20;;;;;;;35.38;31.67;;;19.60;99.90;;;;;;5094695;28;20053;-86
2023/09/12 01:45:54;;;;;;;34.60;30.95;;;19.60;99.90;;;;;;5102804;28;20044;-85
2023/09/12 01:48:26;;;;;;;33.78;30.40;;;19.60;99.90;;;;;;5099203;28;20031;-82
2023/09/12 01:50:53;;;;;;;35.35;31.35;;;19.60;99.90;;;;;;5106321;28;20072;-87
2023/09/12 01:53:21;;;;;;;34.55;30.90;;;19.60;99.90;;;;;;5091678;28;20040;-93
2023/09/12 01:55:48;;;;;;;34.72;30.25;;;19.50;99.90;;;;;;5104036;28;20079;-83
2023/09/12 01:58:16;;;;;;;33.20;29.92;;;19.60;99.90;;;;;;5090920;28;20040;-82
2023/09/12 02:00:45;;;;;;;32.85;29.35;;;19.60;99.90;;;;;;5095694;28;20052;-82
2023/09/12 02:03:16;;;;;;;32.17;29.10;;;19.60;99.90;;;;;;5098832;28;20048;-82
2023/09/12 02:05:44;;;;;;;;;;;19.50;99.90;;;;;;5107496;28;20043;-83
2023/09/12 02:08:20;;;;;;;32.38;29.08;;;19.50;99.90;;;;;;5106288;28;19967;-85
2023/09/12 02:10:48;;;;;;;32.80;29.13;;;19.40;99.90;;;;;;5099094;28;20040;-84
2023/09/12 02:13:13;;;;;;;35.80;30.27;;;19.40;99.90;;;;;;5094241;28;20104;-83
2023/09/12 02:15:39;;;;;;;33.67;30.20;;;19.40;99.90;;;;;;5087788;28;20049;-83
2023/09/12 02:18:04;;;;;;;32.78;29.33;;;19.30;99.90;;;;;;5055009;28;20052;-82
2023/09/12 02:20:32;;;;;;;31.92;28.70;;;19.30;99.90;;;;;;5088189;28;20064;-85
2023/09/12 02:22:57;;;;;;;31.13;28.00;;;19.30;99.90;;;;;;5108588;28;20048;-83
2023/09/12 02:25:23;;;;;;;32.55;29.17;;;19.30;99.90;;;;;;5097471;28;20041;-85
2023/09/12 02:27:49;;;;;;;31.73;28.33;;;19.30;99.90;;;;;;5093208;28;20097;-85
2023/09/12 02:30:14;;;;;;;32.17;28.65;;;19.30;99.90;;;;;;5083847;28;20075;-84
2023/09/12 02:32:42;;;;;;;30.92;27.73;;;19.30;99.90;;;;;;5085396;28;20044;-88
2023/09/12 02:35:07;;;;;;;31.65;28.42;;;19.20;99.90;;;;;;5081144;28;20475;-92
2023/09/12 02:37:33;;;;;;;32.75;29.27;;;19.20;99.90;;;;;;5087666;28;20487;-88
2023/09/12 02:39:59;;;;;;;32.75;29.05;;;19.20;99.90;;;;;;5084602;28;20105;-93
2023/09/12 02:42:25;;;;;;;31.60;27.25;;;19.90;99.90;;;;;;5085122;28;20043;-90
2023/09/12 02:44:52;;;;;;;33.15;29.17;;;19.20;99.90;;;;;;5085986;28;20047;-94
2023/09/12 02:47:17;;;;;;;32.25;27.92;;;19.20;99.90;;;;;;5093101;28;20040;-91
2023/09/12 02:49:43;;;;;;;31.63;28.48;;;19.30;99.90;;;;;;5083402;28;20033;-90
2023/09/12 02:52:09;;;;;;;33.30;29.45;;;19.20;99.90;;;;;;5098481;28;20044;-92
2023/09/12 02:54:34;;;;;;;32.47;29.25;;;19.20;99.90;;;;;;5081162;28;20068;-94
2023/09/12 02:57:00;;;;;;;34.83;30.85;;;19.20;99.90;;;;;;5092465;28;20047;-92
2023/09/12 02:59:26;;;;;;;34.58;30.60;;;19.20;99.90;;;;;;5067780;28;20032;-84
2023/09/12 03:01:51;;;;;;;35.58;31.98;;;19.20;99.90;;;;;;5087480;28;20040;-93
2023/09/12 03:04:17;;;;;;;44.70;35.08;;;19.10;99.90;;;;;;5086598;28;20046;-88
2023/09/12 03:06:44;;;;;;;36.42;30.75;;;19.10;99.90;;;;;;5087392;28;20503;-92
2023/09/12 03:09:11;;;;;;;32.65;29.15;;;19.10;99.90;;;;;;5082663;28;20463;-87
2023/09/12 03:11:36;;;;;;;35.00;30.92;;;19.10;99.90;;;;;;5090064;28;20055;-90
2023/09/12 03:14:02;;;;;;;35.90;31.65;;;19.10;99.90;;;;;;5093895;28;20388;-94
2023/09/12 03:16:28;;;;;;;37.42;31.40;;;19.10;99.90;;;;;;5065881;28;20040;-93
2023/09/12 03:18:53;;;;;;;36.50;30.35;;;19.10;99.90;;;;;;5090189;28;20416;-93
2023/09/12 03:21:19;;;;;;;37.15;32.33;;;19.10;99.90;;;;;;5078628;28;20502;-92
2023/09/12 03:23:45;;;;;;;34.40;30.63;;;19.10;99.90;;;;;;5086325;28;20036;-89
2023/09/12 03:26:10;;;;;;;37.75;31.58;;;19.10;99.90;;;;;;5095061;28;20442;-89
2023/09/12 03:28:36;;;;;;;38.60;32.05;;;19.10;99.90;;;;;;5102651;28;20369;-94
2023/09/12 03:31:13;;;;;;;36.08;31.13;;;19.10;99.90;;;;;;5091737;28;20038;-90
2023/09/12 03:33:40;;;;;;;35.75;31.23;;;19.00;99.90;;;;;;5118626;28;20047;-89
2023/09/12 03:36:07;;;;;;;33.47;29.67;;;19.00;99.90;;;;;;5080211;28;20074;-92
2023/09/12 03:38:33;;;;;;;35.33;30.63;;;19.00;99.90;;;;;;5093106;28;20074;-87
2023/09/12 03:40:59;;;;;;;34.88;29.30;;;19.00;99.90;;;;;;5083883;28;20132;-93
2023/09/12 03:43:25;;;;;;;35.38;29.90;;;19.00;99.90;;;;;;5078386;28;20489;-94
2023/09/12 03:45:50;;;;;;;35.38;30.30;;;19.00;99.90;;;;;;5090742;28;20161;-83
2023/09/12 03:48:16;;;;;;;35.10;29.38;;;18.90;99.90;;;;;;5083307;28;20036;-90
2023/09/12 03:50:42;;;;;;;30.55;27.30;;;19.00;99.90;;;;;;5081727;28;20400;-86
2023/09/12 03:53:08;;;;;;;33.80;28.92;;;18.90;99.90;;;;;;5083707;28;20072;-91
2023/09/12 03:55:34;;;;;;;31.77;28.38;;;19.00;99.90;;;;;;5085099;28;20032;-87
2023/09/12 03:58:03;;;;;;;33.70;27.90;;;18.90;99.90;;;;;;5082734;28;20054;-89
2023/09/12 04:00:28;;;;;;;32.17;28.50;;;18.90;99.90;;;;;;5085145;28;20040;-87
2023/09/12 04:02:54;;;;;;;33.15;28.27;;;18.90;99.90;;;;;;5084039;28;20062;-88
2023/09/12 04:05:20;;;;;;;34.45;29.65;;;18.80;99.90;;;;;;5088088;28;20391;-91
2023/09/12 04:07:45;;;;;;;30.13;26.58;;;18.90;99.90;;;;;;5096419;28;20062;-87
2023/09/12 04:10:12;;;;;;;32.88;29.50;;;18.80;99.90;;;;;;5084919;28;20044;-87
2023/09/12 04:12:37;;;;;;;31.90;28.25;;;18.80;99.90;;;;;;5091100;28;20075;-85
2023/09/12 04:15:03;;;;;;;33.63;28.75;;;18.80;99.90;;;;;;5082936;28;20079;-90
2023/09/12 04:17:29;;;;;;;34.03;28.17;;;18.80;99.90;;;;;;5082001;28;20060;-93
2023/09/12 04:19:55;;;;;;;31.88;26.05;;;18.80;99.90;;;;;;5085396;28;20048;-88
2023/09/12 04:22:20;;;;;;;30.48;27.05;;;18.80;99.90;;;;;;5089944;28;20391;-86
2023/09/12 04:24:46;;;;;;;33.42;28.38;;;18.90;99.90;;;;;;5080681;28;20037;-87
2023/09/12 04:27:11;;;;;;;33.85;30.25;;;18.80;99.90;;;;;;5089740;28;20044;-94
2023/09/12 04:29:37;;;;;;;33.00;28.08;;;18.80;99.90;;;;;;5091142;28;20051;-85
2023/09/12 04:32:03;;;;;;;42.83;36.05;;;18.70;99.90;;;;;;5103698;28;20059;-89
2023/09/12 04:34:30;;;;;;;33.25;29.73;;;18.70;99.90;;;;;;5117769;22;20044;-86
2023/09/12 04:36:56;;;;;;;36.22;29.40;;;18.70;99.90;;;;;;5098874;22;20421;-88
2023/09/12 04:39:22;;;;;;;34.25;27.35;;;18.70;99.90;;;;;;5088897;28;20144;-93
2023/09/12 04:41:47;;;;;;;31.02;27.67;;;18.60;99.90;;;;;;5071542;28;20048;-87
2023/09/12 04:44:14;;;;;;;30.65;27.40;;;18.60;99.90;;;;;;5110377;22;20048;-84
2023/09/12 04:46:40;;;;;;;32.17;28.75;;;18.70;99.90;;;;;;5116778;28;20051;-83
2023/09/12 04:49:05;;;;;;;32.25;27.38;;;18.60;99.90;;;;;;5114192;28;20040;-87
2023/09/12 04:51:31;;;;;;;31.52;28.33;;;18.60;99.90;;;;;;5107118;28;20147;-87
2023/09/12 04:53:56;;;;;;;35.80;29.55;;;19.00;99.90;;;;;;5100022;28;20039;-94
2023/09/12 04:56:24;;;;;;;33.20;28.90;;;18.60;99.90;;;;;;5079391;28;20066;-87
2023/09/12 04:58:50;;;;;;;43.33;38.70;;;18.60;99.90;;;;;;5095074;28;20040;-94
2023/09/12 05:01:19;;;;;;;36.67;32.78;;;18.50;99.90;;;;;;5101509;28;20047;-94
2023/09/12 05:03:45;;;;;;;31.75;28.40;;;18.50;99.90;;;;;;5109408;28;20052;-95
2023/09/12 05:06:13;;;;;;;33.53;29.88;;;18.50;99.90;;;;;;5117619;28;20070;-90
2023/09/12 05:08:39;;;;;;;36.03;31.27;;;18.50;99.90;;;;;;5088983;28;20070;-96
2023/09/12 05:11:04;;;;;;;35.70;29.88;;;18.50;99.90;;;;;;5106560;28;20056;-89
2023/09/12 05:13:30;;;;;;;33.13;27.73;;;19.00;99.90;;;;;;5109082;28;20267;-96
2023/09/12 05:15:59;;;;;;;33.13;29.50;;;18.50;99.90;;;;;;5109262;28;20059;-95
2023/09/12 05:18:24;;;;;;;40.25;32.50;;;18.50;99.90;;;;;;5088997;28;20035;-95
2023/09/12 05:20:50;;;;;;;42.60;34.50;;;18.50;99.90;;;;;;5106139;28;20078;-96
2023/09/12 05:23:16;;;;;;;42.90;34.55;;;18.50;99.90;;;;;;5108183;28;20127;-93
2023/09/12 05:25:41;;;;;;;50.28;35.83;;;18.50;99.90;;;;;;5113901;28;20048;-94
2023/09/12 05:28:07;;;;;;;49.83;37.10;;;18.50;99.90;;;;;;5105666;28;20036;-83
2023/09/12 05:30:33;;;;;;;51.70;41.85;;;18.50;99.90;;;;;;5084131;28;20127;-84
2023/09/12 05:32:58;;;;;;;50.13;37.70;;;18.40;99.90;;;;;;5083572;28;20048;-83
2023/09/12 05:35:24;;;;;;;55.78;37.35;;;18.40;99.90;;;;;;5102598;28;20032;-84
2023/09/12 05:37:50;;;;;;;54.08;35.65;;;18.40;99.90;;;;;;5093576;28;20585;-84
2023/09/12 05:40:17;;;;;;;58.07;37.83;;;18.40;99.90;;;;;;4374442;28;10000734;-84
2023/09/12 05:42:42;;;;;;;50.20;38.35;;;18.40;99.90;;;;;;5083460;28;20071;-83
2023/09/12 05:45:08;;;;;;;56.08;39.65;;;18.20;99.90;;;;;;5099493;28;20093;-83
2023/09/12 05:47:34;;;;;;;55.90;37.72;;;18.40;99.90;;;;;;5098651;28;20036;-81
2023/09/12 05:50:00;;;;;;;55.08;39.80;;;18.40;99.90;;;;;;5096847;28;20044;-79
2023/09/12 05:52:29;;;;;;;52.40;39.88;;;18.40;99.90;;;;;;5097931;28;20058;-82
2023/09/12 05:54:55;;;;;;;53.75;40.60;;;18.40;99.90;;;;;;5099697;28;20032;-82
2023/09/12 05:57:20;;;;;;;61.45;39.60;;;18.40;99.90;;;;;;5100053;28;20044;-80
2023/09/12 05:59:46;;;;;;;62.38;41.78;;;18.30;99.90;;;;;;5080342;28;20143;-82
2023/09/12 06:02:12;;;;;;;70.35;40.10;;;18.40;99.90;;;;;;5076976;28;20050;-84
2023/09/12 06:04:39;;;;;;;52.17;39.72;;;18.40;99.90;;;;;;5096728;28;20073;-83
2023/09/12 06:07:05;;;;;;;81.90;41.08;;;18.40;99.90;;;;;;5095211;28;20040;-86
2023/09/12 06:09:30;;;;;;;112.80;46.92;;;18.40;99.90;;;;;;5075660;28;20421;-89
2023/09/12 06:11:56;;;;;;;58.38;43.05;;;18.40;99.90;;;;;;5088532;28;20032;-92
2023/09/12 06:14:22;;;;;;;59.72;40.92;;;18.40;99.90;;;;;;5069409;28;20505;-89
2023/09/12 06:16:50;;;;;;;55.55;39.22;;;18.30;99.90;;;;;;5084523;28;20055;-92
2023/09/12 06:19:17;;;;;;;50.47;39.70;;;17.90;99.90;;;;;;5066761;28;20126;-92
2023/09/12 06:21:43;;;;;;;54.13;42.15;;;18.50;99.90;;;;;;5067319;28;20504;-93
2023/09/12 06:24:21;;;;;;;52.30;39.70;;;18.30;99.90;;;;;;5098177;28;20047;-93
2023/09/12 06:26:47;;;;;;;58.38;40.38;;;18.60;99.90;;;;;;5068194;28;20040;-93
2023/09/12 06:29:14;;;;;;;56.33;41.33;;;19.00;99.90;;;;;;5061095;28;20059;-94
2023/09/12 06:31:43;;;;;;;55.08;41.72;;;18.50;99.90;;;;;;5082895;28;20141;-91
2023/09/12 06:34:09;;;;;;;56.05;40.83;;;18.40;99.90;;;;;;5062426;28;20040;-91
2023/09/12 06:36:35;;;;;;;51.05;38.38;;;18.50;99.90;;;;;;5060499;28;20052;-92
2023/09/12 06:39:01;;;;;;;55.25;39.67;;;18.40;99.90;;;;;;5076245;28;20040;-93
2023/09/12 06:41:33;;;;;;;54.10;41.15;;;18.60;99.90;;;;;;5059945;28;20101;-95
2023/09/12 06:44:04;;;;;;;53.53;39.65;;;18.60;99.90;;;;;;5064523;28;20395;-93
2023/09/12 06:46:45;;;;;;;53.67;40.00;;;19.20;99.90;;;;;;5106622;28;20050;-90
2023/09/12 06:49:11;;;;;;;51.75;40.65;;;18.60;99.90;;;;;;5080092;28;20048;-83
2023/09/12 06:51:37;;;;;;;51.42;37.85;;;18.50;99.90;;;;;;5092246;28;20384;-82
2023/09/12 06:54:02;;;;;;;48.63;37.50;;;18.50;99.90;;;;;;5100403;28;20112;-83
2023/09/12 06:56:28;;;;;;;51.65;38.63;;;18.60;99.90;;;;;;5102426;28;20059;-84
2023/09/12 06:58:55;;;;;;;48.30;38.50;;;18.50;99.90;;;;;;5103498;28;20551;-83
2023/09/12 07:01:21;;;;;;;55.55;38.00;;;18.50;99.90;;;;;;5103269;28;20089;-82
2023/09/12 07:03:46;;;;;;;48.95;39.13;;;18.50;99.90;;;;;;5099568;28;20044;-82
2023/09/12 07:06:13;;;;;;;51.42;38.80;;;18.50;99.90;;;;;;5100698;28;20157;-83
2023/09/12 07:08:39;;;;;;;53.22;39.17;;;18.50;99.90;;;;;;5099991;28;20051;-83
2023/09/12 07:11:06;;;;;;;54.17;39.55;;;18.60;99.90;;;;;;5099672;28;20051;-83
2023/09/12 07:13:34;;;;;;;54.70;39.25;;;18.60;99.90;;;;;;5084655;28;20044;-83
2023/09/12 07:16:03;;;;;;;51.40;38.13;;;18.60;99.90;;;;;;5085785;28;20375;-82
2023/09/12 07:18:32;;;;;;;58.28;42.60;;;18.60;99.90;;;;;;5083437;28;20082;-83
2023/09/12 07:21:00;;;;;;;54.10;39.75;;;18.60;99.90;;;;;;5099909;28;20040;-83
2023/09/12 07:23:25;;;;;;;54.35;39.95;;;18.60;99.90;;;;;;5100859;28;20134;-83
2023/09/12 07:25:52;;;;;;;65.95;43.78;;;18.70;99.90;;;;;;5102872;28;20126;-83
2023/09/12 07:28:18;;;;;;;62.25;42.03;;;18.70;99.90;;;;;;5103604;28;20027;-82
2023/09/12 07:30:46;;;;;;;58.30;40.15;;;18.70;99.90;;;;;;5099178;28;20040;-83
2023/09/12 07:33:11;;;;;;;60.33;42.95;;;18.70;99.90;;;;;;5082028;28;20036;-82
2023/09/12 07:35:37;;;;;;;57.65;42.47;;;18.80;99.90;;;;;;5102660;28;20040;-83
2023/09/12 07:38:03;;;;;;;64.40;44.53;;;18.80;99.90;;;;;;5102641;28;20499;-83
2023/09/12 07:40:29;;;;;;;61.67;42.10;;;18.80;99.90;;;;;;5083476;28;20082;-83
2023/09/12 07:42:55;;;;;;;60.60;41.20;;;18.90;99.90;;;;;;5099671;28;20131;-82
2023/09/12 07:45:20;;;;;;;60.67;41.50;;;18.90;99.90;;;;;;5099426;28;20064;-82
2023/09/12 07:47:46;;;;;;;60.17;41.78;;;18.90;99.90;;;;;;5084950;28;20067;-82
2023/09/12 07:50:12;;;;;;;68.40;44.30;;;19.00;99.90;;;;;;5103998;28;20050;-82
2023/09/12 07:52:38;;;;;;;62.88;42.63;;;19.00;99.90;;;;;;5100914;28;20122;-82
2023/09/12 07:55:04;;;;;;;62.88;42.97;;;19.00;99.90;;;;;;5100109;28;20127;-83
2023/09/12 07:57:30;;;;;;;65.45;43.40;;;19.00;99.90;;;;;;5101304;28;20036;-83
2023/09/12 07:59:56;;;;;;;67.43;45.47;;;19.00;99.90;;;;;;5084001;28;20039;-82
2023/09/12 08:02:23;;;;;;;61.00;42.85;;;19.00;99.90;;;;;;5102962;28;20115;-83
2023/09/12 08:04:50;;;;;;;69.85;44.80;;;19.00;99.90;;;;;;5099237;28;20050;-82
2023/09/12 08:07:17;;;;;;;67.43;45.10;;;19.00;99.90;;;;;;5098962;28;20122;-83
2023/09/12 08:09:51;;;;;;;67.72;44.53;;;19.10;99.90;;;;;;5084022;28;20074;-84
2023/09/12 08:12:17;;;;;;;64.78;44.55;;;19.10;99.90;;;;;;5084703;28;20040;-84
2023/09/12 08:14:44;;;;;;;61.03;43.60;;;19.10;99.90;;;;;;5099208;28;20028;-83
2023/09/12 08:17:11;;;;;;;63.65;43.85;;;19.10;99.90;;;;;;5099572;28;20399;-83
2023/09/12 08:19:36;;;;;;;63.28;44.13;;;19.10;99.90;;;;;;5100057;28;20043;-83
2023/09/12 08:22:02;;;;;;;64.85;43.75;;;19.20;99.90;;;;;;5068120;28;20051;-82
2023/09/12 08:24:28;;;;;;;62.45;46.03;;;19.20;99.90;;;;;;5102064;28;20496;-82
2023/09/12 08:26:54;;;;;;;64.30;46.17;;;19.20;99.90;;;;;;5080172;28;20043;-82
2023/09/12 08:29:20;;;;;;;60.20;43.85;;;19.30;99.90;;;;;;5081186;28;20120;-84
2023/09/12 08:31:46;;;;;;;68.28;45.28;;;19.30;99.90;;;;;;5083681;28;20130;-83
2023/09/12 08:34:13;;;;;;;65.68;45.67;;;20.00;99.90;;;;;;5102400;28;20514;-83
2023/09/12 08:36:39;;;;;;;66.57;48.13;;;19.40;99.90;;;;;;5100652;28;20036;-83
2023/09/12 08:39:08;;;;;;;71.57;50.83;;;19.40;99.90;;;;;;5101874;28;20516;-84
2023/09/12 08:41:33;;;;;;;63.67;45.80;;;19.30;99.90;;;;;;5103905;28;20111;-83
2023/09/12 08:44:01;;;;;;;60.17;43.75;;;19.40;99.90;;;;;;5088145;28;20127;-82
2023/09/12 08:46:27;;;;;;;64.65;45.33;;;19.50;99.90;;;;;;5106825;28;20043;-83
2023/09/12 08:48:55;;;;;;;68.18;48.05;;;19.50;99.90;;;;;;5101893;28;20365;-84
2023/09/12 08:51:23;;;;;;;68.75;48.47;;;19.50;99.90;;;;;;5103314;28;20079;-86
2023/09/12 08:53:50;;;;;;;67.13;46.17;;;19.50;99.90;;;;;;5105909;28;20070;-83
2023/09/12 08:56:16;;;;;;;73.93;51.40;;;19.50;99.90;;;;;;5106278;28;20036;-82
2023/09/12 08:58:43;;;;;;;66.30;47.38;;;19.60;99.90;;;;;;5104325;28;20044;-83
2023/09/12 09:01:12;;;;;;;65.47;47.60;;;19.60;99.90;;;;;;5085019;28;20044;-82
2023/09/12 09:03:39;;;;;;;66.53;46.97;;;19.60;99.90;;;;;;5103475;28;20044;-83
2023/09/12 09:06:06;;;;;;;64.57;46.22;;;19.60;99.90;;;;;;5106236;28;20039;-82
2023/09/12 09:08:33;;;;;;;66.78;47.33;;;19.60;99.90;;;;;;5105333;28;20553;-83
2023/09/12 09:11:02;;;;;;;68.18;46.25;;;19.60;99.90;;;;;;5102127;28;20048;-83
2023/09/12 09:13:28;;;;;;;64.85;45.70;;;19.60;99.90;;;;;;5102802;28;20036;-83
2023/09/12 09:16:30;;;;;;;63.75;46.47;;;20.00;99.90;;;;;;5105174;28;20064;-84
2023/09/12 09:19:01;;;;;;;64.82;47.03;;;19.70;99.90;;;;;;5008117;28;20050;-84
2023/09/12 09:21:30;;;;;;;70.10;49.70;;;19.70;99.90;;;;;;5060316;28;20048;-82
2023/09/12 09:24:01;;;;;;;72.05;52.05;;;19.70;99.90;;;;;;5093757;28;20048;-82
2023/09/12 09:26:41;;;;;;;68.07;47.90;;;19.70;99.90;;;;;;5104116;28;20075;-83
2023/09/12 09:29:10;;;;;;;61.88;46.50;;;19.80;99.90;;;;;;5094465;28;20476;-83
2023/09/12 09:31:39;;;;;;;62.00;45.45;;;18.90;99.90;;;;;;5102197;28;20036;-83
2023/09/12 09:34:14;;;;;;;68.13;47.97;;;19.80;99.90;;;;;;5105845;28;20067;-83
2023/09/12 09:36:52;;;;;;;66.53;48.40;;;19.80;99.90;;;;;;5104620;28;20035;-82
2023/09/12 09:39:20;;;;;;;69.30;48.75;;;19.90;99.90;;;;;;5102378;28;20036;-85
2023/09/12 09:41:54;;;;;;;63.33;46.47;;;19.90;99.90;;;;;;5085101;28;20047;-85
2023/09/12 09:44:26;;;;;;;;;;;19.90;99.90;;;;;;5087025;28;20047;-84
2023/09/12 09:46:58;;;;;;;67.47;46.53;;;19.50;99.90;;;;;;5102849;28;19938;-85
2023/09/12 09:49:23;;;;;;;68.20;48.10;;;20.00;99.90;;;;;;5101523;28;20085;-84
2023/09/12 09:51:49;;;;;;;70.35;49.05;;;20.10;99.90;;;;;;5103146;28;20078;-83
2023/09/12 09:54:15;;;;;;;68.80;50.33;;;20.10;99.90;;;;;;5087798;28;20038;-84
2023/09/12 09:56:49;;;;;;;65.65;46.10;;;20.20;99.90;;;;;;5104355;28;20575;-82
2023/09/12 09:59:16;;;;;;;;;;;20.30;99.90;;;;;;5101761;28;20040;-83
2023/09/12 10:01:43;;;;;;;62.78;45.00;;;20.30;99.90;;;;;;5102754;28;19919;-82
2023/09/12 10:04:09;;;;;;;63.10;44.72;;;20.40;99.90;;;;;;5086957;28;20372;-83
2023/09/12 10:06:37;;;;;;;61.67;44.50;;;20.40;99.90;;;;;;5086639;28;20031;-83
2023/09/12 10:09:07;;;;;;;59.47;43.35;;;20.50;99.90;;;;;;5092809;28;20036;-85
2023/09/12 10:11:34;;;;;;;63.15;45.85;;;20.60;99.90;;;;;;5101290;28;20055;-82
2023/09/12 10:14:04;;;;;;;57.55;43.35;;;20.60;99.90;;;;;;5103789;28;20422;-84
2023/09/12 10:16:32;;;;;;;57.90;43.53;;;20.70;99.90;;;;;;5086768;28;20483;-82
2023/09/12 10:19:07;;;;;;;55.38;40.20;;;20.70;99.90;;;;;;5101697;28;20123;-82
2023/09/12 10:21:34;;;;;;;57.80;41.88;;;20.70;99.90;;;;;;5083198;28;20051;-83
2023/09/12 10:24:03;;;;;;;60.83;44.10;;;20.70;99.90;;;;;;5104115;28;20034;-84
2023/09/12 10:26:31;;;;;;;55.50;41.22;;;20.70;99.90;;;;;;5104286;28;20604;-84
2023/09/12 10:28:59;;;;;;;53.92;41.33;;;20.80;99.90;;;;;;5083844;28;20078;-83
2023/09/12 10:31:26;;;;;;;57.95;43.15;;;20.80;99.90;;;;;;5101338;28;20055;-83
2023/09/12 10:33:53;;;;;;;53.10;39.88;;;20.90;99.90;;;;;;5101709;28;20051;-84
2023/09/12 10:36:20;;;;;;;49.40;37.50;;;21.00;99.90;;;;;;5104808;28;20032;-82
2023/09/12 10:38:48;;;;;;;50.83;39.13;;;21.10;99.90;;;;;;5102831;28;20042;-82
2023/09/12 10:41:15;;;;;;;44.30;33.33;;;21.10;99.90;;;;;;5100758;28;20073;-83
2023/09/12 10:43:42;;;;;;;50.45;36.90;;;21.20;99.90;;;;;;5100968;28;20073;-83
2023/09/12 10:46:08;;;;;;;48.17;35.05;;;21.30;99.90;;;;;;5104243;28;20079;-84
2023/09/12 10:48:39;;;;;;;55.97;35.92;;;21.30;99.90;;;;;;5103407;28;20044;-84
2023/09/12 10:51:06;;;;;;;44.90;34.05;;;21.30;99.90;;;;;;5100650;28;20286;-82
2023/09/12 10:53:33;;;;;;;48.60;32.75;;;21.40;99.90;;;;;;5100814;28;20036;-85
2023/09/12 10:56:19;;;;;;;42.92;32.03;;;21.40;99.90;;;;;;5084697;28;20396;-84
2023/09/12 10:59:12;;;;;;;48.05;32.63;;;21.40;99.90;;;;;;5086111;28;20390;-83
2023/09/12 11:01:48;;;;;;;36.72;27.17;;;21.40;99.90;;;;;;5100563;28;20495;-83
2023/09/12 11:04:20;;;;;;;38.08;27.73;;;21.50;99.90;;;;;;5058071;28;20066;-83
2023/09/12 11:06:49;;;;;;;37.67;28.10;;;21.50;99.90;;;;;;5100647;28;20091;-85
2023/09/12 11:09:20;;;;;;;38.20;28.35;;;21.50;99.90;;;;;;5085018;28;20035;-82
2023/09/12 11:12:04;;;;;;;31.15;23.35;;;21.60;99.90;;;;;;5103184;28;20376;-84
2023/09/12 11:14:30;;;;;;;;;;;21.60;99.90;;;;;;5100824;28;20443;-82
2023/09/12 11:17:23;;;;;;;32.20;24.80;;;21.60;99.90;;;;;;5101506;28;19991;-84
2023/09/12 11:19:52;;;;;;;30.75;23.00;;;21.60;99.90;;;;;;5098528;28;20052;-84
2023/09/12 11:22:27;;;;;;;29.85;22.75;;;21.70;99.90;;;;;;5100110;28;20118;-84
2023/09/12 11:24:55;;;;;;;32.83;22.67;;;21.70;99.90;;;;;;5100725;28;20123;-83
2023/09/12 11:27:22;;;;;;;27.67;24.10;;;21.70;99.90;;;;;;5103891;28;20036;-83
2023/09/12 11:29:48;;;;;;;41.20;30.02;;;21.70;99.90;;;;;;5102033;28;20047;-84
2023/09/12 11:32:31;;;;;;;36.45;27.92;;;21.70;99.90;;;;;;5081957;28;20060;-84
2023/09/12 11:34:58;;;;;;;31.33;27.97;;;21.80;99.90;;;;;;5101410;28;20051;-83
2023/09/12 11:37:28;;;;;;;38.38;30.95;;;22.20;99.90;;;;;;5102853;28;20047;-85
2023/09/12 11:39:54;;;;;;;36.15;26.00;;;21.80;99.90;;;;;;5083785;28;20054;-84
2023/09/12 11:42:22;;;;;;;33.10;26.98;;;21.80;99.90;;;;;;5100114;28;20040;-82
2023/09/12 11:44:50;;;;;;;34.85;27.08;;;21.80;99.90;;;;;;5063820;28;20048;-85
2023/09/12 11:47:16;;;;;;;32.05;25.35;;;21.80;99.90;;;;;;5081711;28;20044;-83
2023/09/12 11:49:42;;;;;;;37.92;28.10;;;21.80;99.90;;;;;;5099304;28;20461;-83
2023/09/12 11:52:19;;;;;;;33.90;26.55;;;21.80;99.90;;;;;;5101549;28;20044;-85
2023/09/12 11:54:45;;;;;;;28.58;24.98;;;21.80;99.90;;;;;;5103201;28;20036;-84
2023/09/12 11:57:13;;;;;;;32.80;26.80;;;21.80;99.90;;;;;;5100477;28;20093;-83
2023/09/12 11:59:40;;;;;;;31.58;24.98;;;22.00;99.90;;;;;;5098573;28;20399;-83
2023/09/12 12:02:08;;;;;;;26.00;20.92;;;22.10;99.90;;;;;;5101709;28;20051;-85
2023/09/12 12:04:34;;;;;;;23.55;18.27;;;22.30;99.90;;;;;;5084291;28;20069;-84
2023/09/12 12:07:01;;;;;;;23.13;18.95;;;22.50;99.90;;;;;;5101507;28;20160;-83
2023/09/12 12:09:30;;;;;;;25.80;20.00;;;22.70;99.90;;;;;;5081160;28;20031;-83
2023/09/12 12:12:00;;;;;;;24.15;18.45;;;22.90;99.90;;;;;;5098910;28;20036;-84
2023/09/12 12:14:26;;;;;;;23.00;17.73;;;23.00;99.90;;;;;;5085202;28;20445;-84
2023/09/12 12:16:52;;;;;;;22.08;19.60;;;23.20;99.90;;;;;;5102462;28;20040;-85
2023/09/12 12:19:18;;;;;;;26.25;16.75;;;23.30;99.90;;;;;;5072593;28;20082;-85
2023/09/12 12:21:44;;;;;;;20.45;16.98;;;23.40;99.90;;;;;;5099359;28;20071;-85
2023/09/12 12:24:13;;;;;;;22.40;17.77;;;23.50;99.90;;;;;;5067033;28;20430;-83
2023/09/12 12:26:42;;;;;;;24.48;20.60;;;23.70;99.90;;;;;;5102243;28;20480;-83
2023/09/12 12:29:09;;;;;;;22.67;18.17;;;23.80;99.90;;;;;;5100342;28;20043;-83
2023/09/12 12:31:36;;;;;;;20.25;16.17;;;23.80;99.90;;;;;;5081115;28;20415;-83